Time;durP1;ratioP1;P1;durP2;ratioP2;P2;SDS_P1;SDS_P2;PMS_P1;PMS_P2;Temp;Humidity;BMP_temperature;BMP_pressure;BME280_temperature;BME280_humidity;BME280_pressure;Samples;Min_cycle;Max_cycle;Signal;HPM_P1;HPM_P2
2021/12/02 00:01:06;;;;;;;18.65;3.42;;;;;;;2.69;100.00;99753.94;5262256;28;20035;-67
2021/12/02 00:03:38;;;;;;;13.40;3.45;;;;;;;2.68;100.00;99761.91;5262995;28;20459;-68
2021/12/02 00:06:12;;;;;;;15.85;3.13;;;;;;;2.71;100.00;99757.31;5255465;28;20041;-67
2021/12/02 00:08:46;;;;;;;12.00;3.08;;;;;;;2.75;100.00;99766.72;5253688;28;20088;-68
2021/12/02 00:11:18;;;;;;;12.23;3.25;;;;;;;2.81;100.00;99770.75;5246360;28;20042;-68
2021/12/02 00:16:39;;;;;;;13.00;3.25;;;;;;;2.87;100.00;99769.53;5241273;28;20449;-68
2021/12/02 00:22:02;;;;;;;12.40;2.30;;;;;;;2.84;100.00;99769.72;5251684;28;20044;-68
2021/12/02 00:24:35;;;;;;;11.45;2.33;;;;;;;2.83;100.00;99770.66;5248971;28;20133;-68
2021/12/02 00:27:09;;;;;;;15.00;2.60;;;;;;;2.84;100.00;99773.22;5246170;28;20036;-68
2021/12/02 00:29:44;;;;;;;10.63;2.20;;;;;;;2.83;100.00;99770.66;5247002;28;20082;-68
2021/12/02 00:32:17;;;;;;;15.57;2.25;;;;;;;2.87;100.00;99770.38;5248353;28;20283;-68
2021/12/02 00:34:48;;;;;;;10.30;2.53;;;;;;;2.92;100.00;99770.09;5247558;28;20033;-68
2021/12/02 00:37:21;;;;;;;11.88;2.58;;;;;;;2.95;100.00;99756.72;5246651;28;20086;-68
2021/12/02 00:39:54;;;;;;;14.20;2.50;;;;;;;2.94;100.00;99757.69;5248128;28;20032;-68
2021/12/02 00:42:26;;;;;;;14.15;2.22;;;;;;;2.96;100.00;99754.97;5252903;28;20036;-68
2021/12/02 00:44:58;;;;;;;15.52;2.72;;;;;;;2.90;100.00;99756.19;5262368;28;20028;-68
2021/12/02 00:47:31;;;;;;;13.65;2.85;;;;;;;2.89;100.00;99755.31;5264458;28;20083;-68
2021/12/02 00:50:03;;;;;;;13.75;2.80;;;;;;;2.93;100.00;99756.84;5260388;28;20052;-68
2021/12/02 00:52:36;;;;;;;10.77;2.70;;;;;;;2.94;100.00;99758.50;5262259;28;20063;-68
2021/12/02 00:55:08;;;;;;;17.80;3.22;;;;;;;2.94;100.00;99760.31;5253853;28;20031;-68
2021/12/02 00:57:39;;;;;;;14.43;2.83;;;;;;;2.99;100.00;99755.59;5253452;28;20025;-68
2021/12/02 01:00:11;;;;;;;12.88;3.28;;;;;;;2.97;100.00;99754.00;5257385;28;20043;-68
2021/12/02 01:02:43;;;;;;;16.25;3.40;;;;;;;3.07;100.00;99741.97;5256821;28;20036;-68
2021/12/02 01:05:14;;;;;;;13.68;3.05;;;;;;;3.04;100.00;99755.31;5276923;28;20028;-68
2021/12/02 01:07:46;;;;;;;10.63;2.83;;;;;;;3.02;100.00;99749.28;5248067;28;20044;-68
2021/12/02 01:10:18;;;;;;;11.90;3.10;;;;;;;3.13;100.00;99757.38;5260135;28;20033;-68
2021/12/02 01:12:50;;;;;;;15.32;2.90;;;;;;;3.05;100.00;99757.00;5253074;28;20029;-68
2021/12/02 01:15:21;;;;;;;13.45;3.30;;;;;;;3.07;100.00;99765.66;5257054;28;20121;-68
2021/12/02 01:17:53;;;;;;;13.10;2.70;;;;;;;3.09;100.00;99766.41;5252318;28;20030;-68
2021/12/02 01:20:25;;;;;;;13.23;3.78;;;;;;;3.17;100.00;99760.66;5258491;28;20623;-68
2021/12/02 01:22:58;;;;;;;12.48;2.88;;;;;;;3.22;100.00;99762.06;5255556;28;20441;-68
2021/12/02 01:25:33;;;;;;;14.07;2.88;;;;;;;3.17;100.00;99765.94;5257013;28;20043;-68
2021/12/02 01:28:04;;;;;;;10.88;2.38;;;;;;;3.13;100.00;99765.28;5263601;28;20036;-68
2021/12/02 01:30:36;;;;;;;12.48;2.58;;;;;;;3.20;100.00;99758.66;5280291;28;20481;-68
2021/12/02 01:33:08;;;;;;;10.95;2.13;;;;;;;3.09;100.00;99763.78;5261205;28;20024;-68
2021/12/02 01:35:40;;;;;;;11.70;2.28;;;;;;;3.05;100.00;99772.81;5258243;28;20478;-68
2021/12/02 01:38:11;;;;;;;11.35;2.35;;;;;;;2.96;100.00;99774.25;5254993;28;20036;-68
2021/12/02 01:40:44;;;;;;;7.80;1.92;;;;;;;2.93;100.00;99783.19;5263624;28;20029;-68
2021/12/02 01:43:18;;;;;;;7.78;1.95;;;;;;;2.87;100.00;99774.81;5253192;28;20520;-68
2021/12/02 01:45:49;;;;;;;10.60;2.28;;;;;;;2.79;100.00;99785.81;5256358;28;20029;-68
2021/12/02 01:48:24;;;;;;;9.95;2.10;;;;;;;2.88;100.00;99771.25;5255883;28;20457;-68
2021/12/02 01:51:01;;;;;;;11.10;2.75;;;;;;;2.80;100.00;99769.06;5261169;28;20043;-68
2021/12/02 01:53:38;;;;;;;11.27;3.00;;;;;;;2.73;100.00;99765.13;5253139;28;20507;-68
2021/12/02 01:56:12;;;;;;;12.30;3.03;;;;;;;2.70;100.00;99774.06;5250325;28;20097;-68
2021/12/02 01:58:46;;;;;;;12.55;3.00;;;;;;;2.68;100.00;99773.28;5253336;28;20553;-68
2021/12/02 02:01:25;;;;;;;17.65;3.70;;;;;;;2.65;100.00;99773.50;5254844;28;20051;-68
2021/12/02 02:03:56;;;;;;;10.45;3.15;;;;;;;2.61;100.00;99765.84;5254193;28;20040;-68
2021/12/02 02:06:38;;;;;;;11.77;3.20;;;;;;;2.54;100.00;99768.88;5256787;28;20056;-68
2021/12/02 02:09:11;;;;;;;13.02;2.72;;;;;;;2.50;100.00;99774.41;5252300;28;20053;-68
2021/12/02 02:11:42;;;;;;;9.63;2.55;;;;;;;2.43;100.00;99773.09;5258664;28;20062;-68
2021/12/02 02:14:14;;;;;;;6.22;3.00;;;;;;;2.48;100.00;99771.88;5256002;28;20033;-68
2021/12/02 02:16:47;;;;;;;10.95;3.42;;;;;;;2.36;100.00;99775.25;5257605;28;20036;-68
2021/12/02 02:19:18;;;;;;;12.07;2.83;;;;;;;2.28;100.00;99775.72;5261444;28;20386;-68
2021/12/02 02:21:49;;;;;;;7.45;2.90;;;;;;;2.23;100.00;99783.03;5259872;28;20037;-68
2021/12/02 02:24:21;;;;;;;11.23;3.13;;;;;;;2.24;100.00;99775.97;5257122;28;20024;-68
2021/12/02 02:26:52;;;;;;;11.13;2.78;;;;;;;2.24;100.00;99775.97;5252116;28;20679;-68
2021/12/02 02:29:23;;;;;;;8.77;3.00;;;;;;;2.23;100.00;99771.66;5249652;28;20028;-68
2021/12/02 02:31:54;;;;;;;8.80;3.17;;;;;;;2.23;100.00;99766.41;5260888;28;20054;-68
2021/12/02 02:34:26;;;;;;;9.38;3.00;;;;;;;2.29;100.00;99766.88;5249483;28;20035;-68
2021/12/02 02:37:01;;;;;;;9.18;3.10;;;;;;;2.15;100.00;99765.06;5255369;28;20121;-68
2021/12/02 02:39:34;;;;;;;9.68;3.70;;;;;;;2.32;100.00;99782.47;5251302;28;20238;-68
2021/12/02 02:42:08;;;;;;;13.00;3.50;;;;;;;2.25;100.00;99775.03;5246101;28;20028;-68
2021/12/02 02:44:40;;;;;;;9.32;2.97;;;;;;;2.35;100.00;99781.44;5247778;28;20122;-68
2021/12/02 02:47:11;;;;;;;7.95;2.60;;;;;;;2.25;100.00;99780.31;5256248;28;20635;-67
2021/12/02 02:49:42;;;;;;;8.93;2.83;;;;;;;2.25;100.00;99777.69;5258670;28;20210;-68
2021/12/02 02:52:13;;;;;;;9.00;2.38;;;;;;;2.18;100.00;99771.91;5255033;28;20474;-68
2021/12/02 02:54:46;;;;;;;9.25;2.45;;;;;;;2.09;100.00;99770.69;5264120;28;20079;-68
2021/12/02 02:57:20;;;;;;;11.68;2.65;;;;;;;2.10;100.00;99768.91;5264944;28;20106;-68
2021/12/02 03:02:41;;;;;;;9.85;2.20;;;;;;;2.06;100.00;99770.00;5262813;28;20029;-68
2021/12/02 03:08:32;;;;;;;11.52;2.50;;;;;;;1.90;100.00;99778.81;5264119;28;20891;-68
2021/12/02 03:11:04;;;;;;;10.88;2.47;;;;;;;1.86;100.00;99773.78;5280679;28;20599;-68
2021/12/02 03:13:47;;;;;;;10.65;2.22;;;;;;;1.83;100.00;99772.19;5265978;28;20398;-67
2021/12/02 03:19:14;;;;;;;8.18;2.95;;;;;;;1.91;100.00;99771.75;5265149;28;20048;-68
2021/12/02 03:21:45;;;;;;;11.68;3.28;;;;;;;1.94;100.00;99788.22;5267265;28;20090;-67
2021/12/02 03:24:17;;;;;;;9.52;3.20;;;;;;;1.97;100.00;99789.81;5269502;28;20025;-68
2021/12/02 03:26:48;;;;;;;9.50;4.35;;;;;;;1.98;100.00;99788.88;5259426;28;20428;-67
2021/12/02 03:29:20;;;;;;;13.20;3.75;;;;;;;2.03;100.00;99794.69;5264292;28;20046;-68
2021/12/02 03:31:51;;;;;;;10.10;3.63;;;;;;;2.08;100.00;99797.91;5259291;28;20090;-68
2021/12/02 03:34:23;;;;;;;11.52;3.78;;;;;;;2.20;100.00;99800.78;5264879;28;20502;-68
2021/12/02 03:36:54;;;;;;;9.50;4.10;;;;;;;2.25;100.00;99794.31;5260522;28;20493;-68
2021/12/02 03:39:26;;;;;;;13.90;4.90;;;;;;;2.23;100.00;99797.97;5257342;28;20137;-68
2021/12/02 03:41:57;;;;;;;13.43;4.10;;;;;;;2.22;100.00;99801.53;5257295;28;20028;-68
2021/12/02 03:44:29;;;;;;;14.02;3.80;;;;;;;2.23;100.00;99817.25;5257816;28;20021;-68
2021/12/02 03:47:00;;;;;;;12.60;2.95;;;;;;;2.24;100.00;99818.91;5266328;28;20336;-69
2021/12/02 03:49:32;;;;;;;10.45;2.38;;;;;;;2.11;100.00;99825.81;5253257;28;20025;-71
2021/12/02 03:52:03;;;;;;;9.95;2.30;;;;;;;2.05;100.00;99816.53;5262657;28;20029;-71
2021/12/02 03:54:35;;;;;;;11.23;2.17;;;;;;;2.02;100.00;99807.97;5258563;28;20507;-70
2021/12/02 03:57:06;;;;;;;10.45;2.03;;;;;;;2.05;100.00;99797.25;5261585;28;20133;-70
2021/12/02 03:59:37;;;;;;;11.68;2.10;;;;;;;2.01;100.00;99803.63;5260815;28;20032;-70
2021/12/02 04:02:09;;;;;;;8.82;2.22;;;;;;;1.95;100.00;99795.16;5258277;28;20041;-69
2021/12/02 04:04:40;;;;;;;10.35;2.50;;;;;;;1.90;100.00;99799.00;5258415;28;20451;-70
2021/12/02 04:07:11;;;;;;;11.55;2.50;;;;;;;1.88;100.00;99798.22;5248964;28;20703;-70
2021/12/02 04:09:44;;;;;;;7.43;2.53;;;;;;;1.84;100.00;99787.06;5243442;28;20514;-69
2021/12/02 04:12:23;;;;;;;10.90;2.75;;;;;;;1.86;100.00;99785.19;5261248;28;21414;-69
2021/12/02 04:15:13;;;;;;;11.07;2.58;;;;;;;1.81;100.00;99786.38;5254549;28;20606;-69
2021/12/02 04:17:44;;;;;;;12.77;2.65;;;;;;;1.87;100.00;99793.91;5258676;28;20058;-69
2021/12/02 04:20:17;;;;;;;15.55;3.15;;;;;;;1.95;100.00;99796.94;5255090;28;20693;-69
2021/12/02 04:22:50;;;;;;;13.40;2.65;;;;;;;1.93;100.00;99783.03;5248472;28;20251;-69
2021/12/02 04:25:23;;;;;;;9.00;2.53;;;;;;;1.87;100.00;99786.84;5262164;28;20154;-69
2021/12/02 04:27:54;;;;;;;9.55;2.58;;;;;;;1.84;100.00;99792.31;5251435;28;20185;-69
2021/12/02 04:30:26;;;;;;;10.25;2.53;;;;;;;1.85;100.00;99785.25;5262054;28;20115;-68
2021/12/02 04:32:58;;;;;;;6.03;1.85;;;;;;;1.80;100.00;99785.50;5260075;28;20371;-68
2021/12/02 04:35:29;;;;;;;12.45;1.92;;;;;;;1.91;100.00;99785.75;5271025;28;20029;-68
2021/12/02 04:38:00;;;;;;;9.23;2.33;;;;;;;1.87;100.00;99791.28;5251859;28;20038;-69
2021/12/02 04:40:31;;;;;;;9.07;2.10;;;;;;;1.92;100.00;99790.09;5259081;28;20088;-68
2021/12/02 04:43:03;;;;;;;11.15;2.40;;;;;;;1.94;100.00;99805.78;5251833;28;20031;-68
2021/12/02 04:45:34;;;;;;;8.25;2.10;;;;;;;2.06;100.00;99812.13;5253896;28;20619;-68
2021/12/02 04:48:06;;;;;;;9.63;2.55;;;;;;;2.00;100.00;99815.94;5253302;28;20060;-68
2021/12/02 04:50:38;;;;;;;11.68;2.60;;;;;;;1.96;100.00;99814.44;5256951;28;20083;-68
2021/12/02 04:53:09;;;;;;;6.30;2.03;;;;;;;2.01;100.00;99822.03;5250411;28;20360;-68
2021/12/02 04:55:41;;;;;;;13.95;2.63;;;;;;;1.95;100.00;99825.88;5262111;28;20039;-69
2021/12/02 04:58:12;;;;;;;13.55;2.30;;;;;;;1.94;100.00;99830.28;5250045;28;20049;-69
2021/12/02 05:00:43;;;;;;;10.50;2.72;;;;;;;1.94;100.00;99826.81;5254165;28;20167;-68
2021/12/02 05:03:15;;;;;;;10.45;2.60;;;;;;;1.95;100.00;99815.34;5251982;28;20201;-69
2021/12/02 05:05:46;;;;;;;14.07;2.50;;;;;;;1.97;100.00;99826.63;5250168;28;20151;-68
2021/12/02 05:08:17;;;;;;;11.77;3.03;;;;;;;1.92;100.00;99831.31;5249230;28;20053;-69
2021/12/02 05:10:49;;;;;;;10.57;2.65;;;;;;;1.92;100.00;99837.44;5250487;28;20025;-69
2021/12/02 05:13:20;;;;;;;8.52;2.70;;;;;;;1.95;100.00;99839.88;5256400;28;20041;-68
2021/12/02 05:15:51;;;;;;;10.45;2.85;;;;;;;1.96;100.00;99836.31;5257220;28;20493;-68
2021/12/02 05:18:22;;;;;;;9.70;2.70;;;;;;;2.07;100.00;99842.72;5248485;28;20027;-69
2021/12/02 05:20:54;;;;;;;17.33;3.10;;;;;;;2.00;100.00;99850.13;5250633;28;20578;-70
2021/12/02 05:23:25;;;;;;;8.82;2.08;;;;;;;1.92;100.00;99852.38;5250108;28;20024;-71
2021/12/02 05:25:56;;;;;;;8.10;1.20;;;;;;;1.76;100.00;99858.50;5255187;28;20113;-71
2021/12/02 05:28:28;;;;;;;5.45;1.25;;;;;;;1.67;100.00;99856.38;5250380;28;20151;-71
2021/12/02 05:30:59;;;;;;;10.05;1.20;;;;;;;1.61;100.00;99861.97;5255122;28;20482;-73
2021/12/02 05:33:30;;;;;;;4.88;0.80;;;;;;;1.46;100.00;99847.88;5257968;28;20033;-73
2021/12/02 05:36:02;;;;;;;4.65;0.82;;;;;;;1.39;100.00;99849.16;5259738;28;20039;-72
2021/12/02 05:38:34;;;;;;;6.18;0.60;;;;;;;1.27;100.00;99852.44;5255994;28;20025;-72
2021/12/02 05:41:06;;;;;;;4.68;0.50;;;;;;;1.15;100.00;99843.44;5284960;28;20521;-72
2021/12/02 05:43:38;;;;;;;4.38;0.73;;;;;;;1.09;100.00;99838.50;5252657;28;20490;-70
2021/12/02 05:46:09;;;;;;;5.30;0.63;;;;;;;1.05;100.00;99843.06;5246594;28;20036;-70
2021/12/02 05:48:41;;;;;;;3.53;0.80;;;;;;;1.07;100.00;99840.38;5246196;28;20037;-70
2021/12/02 05:51:12;;;;;;;4.28;0.60;;;;;;;1.10;100.00;99855.97;5251169;28;20554;-70
2021/12/02 05:53:43;;;;;;;5.38;1.10;;;;;;;1.14;100.00;99862.75;5246276;28;20043;-70
2021/12/02 05:56:15;;;;;;;6.30;1.00;;;;;;;1.16;100.00;99867.00;5249155;28;20033;-71
2021/12/02 05:58:46;;;;;;;8.35;1.02;;;;;;;1.14;100.00;99854.88;5246902;28;20028;-72
2021/12/02 06:01:17;;;;;;;7.57;0.77;;;;;;;1.20;100.00;99851.91;5257481;28;20062;-72
2021/12/02 06:03:49;;;;;;;5.68;0.80;;;;;;;1.18;100.00;99856.41;5257659;28;20025;-72
2021/12/02 06:06:23;;;;;;;2.60;0.50;;;;;;;1.17;100.00;99844.22;5253668;28;20059;-71
2021/12/02 06:08:54;;;;;;;6.97;0.73;;;;;;;1.06;100.00;99851.81;5253410;28;20571;-71
2021/12/02 06:11:26;;;;;;;2.78;0.50;;;;;;;0.97;100.00;99855.78;5255911;28;20028;-71
2021/12/02 06:13:57;;;;;;;5.40;0.77;;;;;;;0.89;100.00;99843.03;5252091;28;20133;-70
2021/12/02 06:16:29;;;;;;;5.72;0.93;;;;;;;0.84;100.00;99847.69;5259277;28;20490;-70
2021/12/02 06:19:00;;;;;;;10.48;0.88;;;;;;;0.79;100.00;99854.97;5258878;28;20107;-70
2021/12/02 06:21:32;;;;;;;3.85;0.65;;;;;;;0.90;100.00;99857.00;5263386;28;20058;-70
2021/12/02 06:24:05;;;;;;;7.55;0.80;;;;;;;0.88;100.00;99856.25;5266085;28;20031;-70
2021/12/02 06:26:37;;;;;;;5.10;0.63;;;;;;;1.02;100.00;99873.91;5265811;28;20037;-70
2021/12/02 06:29:09;;;;;;;7.90;0.90;;;;;;;1.06;100.00;99878.94;5252501;28;20250;-69
2021/12/02 06:31:40;;;;;;;6.30;1.27;;;;;;;1.15;100.00;99874.94;5259146;28;20110;-70
2021/12/02 06:34:11;;;;;;;8.65;1.65;;;;;;;1.12;100.00;99873.34;5265059;28;20635;-69
2021/12/02 06:36:43;;;;;;;7.05;1.30;;;;;;;1.17;100.00;99868.72;5263481;28;20063;-70
2021/12/02 06:39:14;;;;;;;10.63;1.85;;;;;;;1.17;100.00;99862.63;5264847;28;20029;-69
2021/12/02 06:41:45;;;;;;;5.03;1.40;;;;;;;1.13;100.00;99863.69;5264099;28;20377;-69
2021/12/02 06:44:16;;;;;;;3.80;1.50;;;;;;;1.17;100.00;99863.44;5266984;28;20056;-69
2021/12/02 06:46:48;;;;;;;6.10;2.00;;;;;;;1.15;100.00;99862.69;5268293;28;20121;-69
2021/12/02 06:49:19;;;;;;;12.13;2.08;;;;;;;1.09;100.00;99867.41;5262591;28;20020;-69
2021/12/02 06:51:50;;;;;;;8.25;2.72;;;;;;;1.24;100.00;99860.50;5269804;28;20031;-69
2021/12/02 06:54:22;;;;;;;10.60;3.22;;;;;;;1.16;100.00;99889.81;5268320;28;20052;-69
2021/12/02 06:56:54;;;;;;;14.15;4.68;;;;;;;1.20;100.00;99891.31;5269400;28;20478;-69
2021/12/02 06:59:25;;;;;;;13.15;5.20;;;;;;;1.25;100.00;99905.09;5262047;28;20427;-69
2021/12/02 07:01:56;;;;;;;14.15;6.80;;;;;;;1.26;100.00;99901.50;5265369;28;20936;-69
2021/12/02 07:04:27;;;;;;;19.40;6.97;;;;;;;1.27;100.00;99908.47;5268089;28;20316;-69
2021/12/02 07:06:59;;;;;;;12.98;4.95;;;;;;;1.25;100.00;99912.97;5268975;28;20124;-69
2021/12/02 07:09:30;;;;;;;10.52;4.40;;;;;;;1.21;100.00;99916.69;5271192;28;20108;-69
2021/12/02 07:12:03;;;;;;;10.35;4.60;;;;;;;1.24;100.00;99913.88;5272380;28;20044;-69
2021/12/02 07:14:34;;;;;;;11.48;4.55;;;;;;;1.25;100.00;99923.47;5269667;28;20541;-69
2021/12/02 07:17:06;;;;;;;14.82;6.45;;;;;;;1.34;100.00;99920.38;5270305;28;20024;-69
2021/12/02 07:19:39;;;;;;;15.95;7.00;;;;;;;1.40;100.00;99926.19;5261728;28;20040;-69
2021/12/02 07:22:11;;;;;;;17.75;7.20;;;;;;;1.37;100.00;99919.34;5271492;28;20020;-69
2021/12/02 07:24:42;;;;;;;14.82;6.43;;;;;;;1.36;100.00;99925.50;5266352;28;20028;-70
2021/12/02 07:27:13;;;;;;;14.60;6.43;;;;;;;1.37;100.00;99932.47;5265619;28;20036;-70
2021/12/02 07:29:45;;;;;;;13.38;6.07;;;;;;;1.36;100.00;99942.16;5262486;28;20036;-70
2021/12/02 07:32:16;;;;;;;11.85;3.92;;;;;;;1.33;100.00;99955.44;5267594;28;20035;-70
2021/12/02 07:34:50;;;;;;;10.75;3.22;;;;;;;1.29;100.00;99953.06;5269453;28;20070;-71
2021/12/02 07:37:22;;;;;;;10.10;3.65;;;;;;;1.27;100.00;99941.78;5264423;28;20107;-70
2021/12/02 07:39:55;;;;;;;12.38;5.10;;;;;;;1.25;100.00;99949.75;5264467;28;20048;-70
2021/12/02 07:42:26;;;;;;;13.25;5.95;;;;;;;1.26;100.00;99948.81;5267947;28;20065;-70
2021/12/02 07:44:58;;;;;;;16.83;7.55;;;;;;;1.27;100.00;99954.94;5259370;28;20043;-70
2021/12/02 07:47:31;;;;;;;16.58;6.72;;;;;;;1.33;100.00;99957.22;5247436;28;21127;-69
2021/12/02 07:50:05;;;;;;;12.40;6.10;;;;;;;1.36;100.00;99957.91;5246846;28;20043;-69
2021/12/02 07:52:44;;;;;;;11.38;5.35;;;;;;;1.35;100.00;99958.00;5249981;28;20044;-70
2021/12/02 07:55:16;;;;;;;9.48;5.20;;;;;;;1.33;100.00;99952.81;5255281;28;20123;-69
2021/12/02 07:57:47;;;;;;;12.30;4.70;;;;;;;1.25;100.00;99952.38;5254332;28;20036;-69
2021/12/02 08:00:22;;;;;;;13.63;4.72;;;;;;;1.27;100.00;99961.03;5250369;28;20028;-70
2021/12/02 08:02:55;;;;;;;10.25;4.63;;;;;;;1.16;100.00;99964.19;5251509;28;20356;-69
2021/12/02 08:05:27;;;;;;;15.27;4.75;;;;;;;1.24;100.00;99971.69;5255898;28;20120;-69
2021/12/02 08:07:58;;;;;;;15.88;6.80;;;;;;;1.18;100.00;99966.75;5259344;28;20040;-69
2021/12/02 08:10:29;;;;;;;15.52;6.72;;;;;;;1.18;100.00;99964.97;5271119;28;20086;-69
2021/12/02 08:13:02;;;;;;;15.93;7.32;;;;;;;1.20;100.00;99967.53;5268632;28;20592;-69
2021/12/02 08:15:34;;;;;;;12.43;7.03;;;;;;;1.10;100.00;99979.44;5269301;28;20028;-69
2021/12/02 08:18:05;;;;;;;14.73;6.78;;;;;;;1.03;100.00;99978.06;5267979;28;20442;-69
2021/12/02 08:20:37;;;;;;;16.23;7.00;;;;;;;0.98;100.00;99987.03;5264138;28;20032;-69
2021/12/02 08:23:08;;;;;;;14.88;6.22;;;;;;;0.92;100.00;99984.72;5273444;28;20039;-69
2021/12/02 08:25:40;;;;;;;14.68;6.50;;;;;;;0.88;100.00;99985.78;5266767;28;20029;-69
2021/12/02 08:28:11;;;;;;;16.25;6.78;;;;;;;0.86;100.00;99987.63;5273645;28;20126;-69
2021/12/02 08:30:43;;;;;;;18.33;6.75;;;;;;;0.88;100.00;99993.69;5270797;28;20036;-69
2021/12/02 08:33:14;;;;;;;16.77;7.47;;;;;;;0.77;100.00;99982.84;5269407;28;20032;-69
2021/12/02 08:35:47;;;;;;;19.30;7.85;;;;;;;0.82;100.00;99991.31;5268759;28;20367;-68
2021/12/02 08:38:22;;;;;;;17.50;7.97;;;;;;;0.79;100.00;99983.63;5267524;28;20021;-69
2021/12/02 08:40:53;;;;;;;18.65;6.63;;;;;;;0.76;100.00;99992.47;5262163;28;20044;-68
2021/12/02 08:43:25;;;;;;;17.65;5.90;;;;;;;0.75;100.00;99992.59;5260346;28;20032;-70
2021/12/02 08:45:57;;;;;;;12.40;4.78;;;;;;;0.76;100.00;99995.09;5260428;28;20148;-69
2021/12/02 08:48:28;;;;;;;10.68;4.28;;;;;;;0.75;100.00;100005.72;5272076;28;20039;-68
2021/12/02 08:51:00;;;;;;;11.70;4.45;;;;;;;0.77;100.00;100015.19;5267819;28;20055;-68
2021/12/02 08:53:31;;;;;;;12.70;4.22;;;;;;;0.85;100.00;100022.69;5268829;28;20372;-68
2021/12/02 08:56:02;;;;;;;14.10;4.93;;;;;;;1.00;100.00;100033.34;5265887;28;20118;-68
2021/12/02 08:58:36;;;;;;;14.40;5.32;;;;;;;1.21;100.00;100032.28;5262264;28;20544;-68
2021/12/02 09:01:07;;;;;;;15.35;6.10;;;;;;;1.37;100.00;100043.72;5266128;28;20030;-68
2021/12/02 09:03:39;;;;;;;20.55;6.78;;;;;;;1.47;100.00;100046.72;5269007;28;20025;-68
2021/12/02 09:06:11;;;;;;;14.68;6.70;;;;;;;1.64;100.00;100048.47;5270894;28;20121;-68
2021/12/02 09:08:43;;;;;;;19.40;7.07;;;;;;;1.70;100.00;100052.56;5272317;28;20402;-68
2021/12/02 09:11:14;;;;;;;18.63;6.90;;;;;;;1.74;100.00;100054.09;5270730;28;20028;-68
2021/12/02 09:13:46;;;;;;;16.17;6.95;;;;;;;1.68;100.00;100054.41;5272728;28;20115;-68
2021/12/02 09:16:18;;;;;;;17.50;6.97;;;;;;;1.73;100.00;100063.75;5271121;28;20028;-68
2021/12/02 09:18:50;;;;;;;17.58;6.97;;;;;;;1.76;100.00;100060.13;5275771;28;20089;-68
2021/12/02 09:21:23;;;;;;;18.67;6.60;;;;;;;1.80;100.00;100064.28;5273274;28;20059;-68
2021/12/02 09:23:55;;;;;;;19.88;5.22;;;;;;;1.90;100.00;100062.88;5271745;28;20082;-69
2021/12/02 09:26:26;;;;;;;15.95;5.28;;;;;;;1.83;100.00;100068.53;5273831;28;20478;-68
2021/12/02 09:28:58;;;;;;;16.65;4.20;;;;;;;1.80;100.00;100087.94;5274379;28;20028;-68
2021/12/02 09:31:30;;;;;;;13.77;3.53;;;;;;;1.76;100.00;100083.78;5275204;28;20026;-68
2021/12/02 09:34:01;;;;;;;13.07;3.47;;;;;;;1.72;100.00;100082.25;5271582;28;20039;-68
2021/12/02 09:36:33;;;;;;;13.25;3.42;;;;;;;1.67;100.00;100087.75;5270987;28;20420;-68
2021/12/02 09:39:06;;;;;;;11.98;2.92;;;;;;;1.76;100.00;100079.41;5271688;28;20035;-68
2021/12/02 09:41:38;;;;;;;13.93;3.35;;;;;;;1.77;100.00;100088.13;5275177;28;20321;-68
2021/12/02 09:44:09;;;;;;;14.88;3.08;;;;;;;1.81;100.00;100083.56;5273626;28;20055;-68
2021/12/02 09:46:41;;;;;;;14.18;3.10;;;;;;;1.86;100.00;100089.41;5271002;28;20039;-68
2021/12/02 09:49:13;;;;;;;8.50;2.80;;;;;;;1.80;100.00;100097.63;5272125;28;20466;-68
2021/12/02 09:54:27;;;;;;;13.80;3.15;;;;;;;1.91;100.00;100095.28;5270546;28;20486;-68
2021/12/02 09:57:03;;;;;;;13.15;3.40;;;;;;;1.92;100.00;100079.44;5273462;28;21547;-68
2021/12/02 10:02:18;;;;;;;7.82;3.40;;;;;;;1.95;100.00;100089.78;5271147;28;20036;-68
2021/12/02 10:04:54;;;;;;;;;;;;;;;1.88;100.00;100083.16;5271872;28;20404;-68
2021/12/02 10:07:36;;;;;;;15.90;4.40;;;;;;;1.80;100.00;100081.84;5274150;28;19923;-68
2021/12/02 10:10:16;;;;;;;11.10;4.75;;;;;;;1.78;100.00;100087.19;5271294;28;20048;-68
2021/12/02 10:16:47;;;;;;;16.57;5.70;;;;;;;2.03;100.00;100091.16;5271685;28;20118;-68
2021/12/02 10:19:12;;;;;;;13.57;5.53;;;;;;;2.06;100.00;100091.00;5271340;28;20368;-68
2021/12/02 10:21:49;;;;;;;15.65;5.22;;;;;;;2.11;100.00;100105.63;5276108;28;20062;-68
2021/12/02 10:24:26;;;;;;;16.48;6.03;;;;;;;2.25;100.00;100107.50;5275331;28;20071;-68
2021/12/02 10:27:04;;;;;;;13.10;5.38;;;;;;;2.24;100.00;100107.56;5276102;28;20081;-68
2021/12/02 10:29:38;;;;;;;15.73;4.75;;;;;;;2.31;100.00;100116.84;5277732;28;20450;-68
2021/12/02 10:32:25;;;;;;;15.73;5.88;;;;;;;2.41;100.00;100111.94;5274728;28;20032;-68
2021/12/02 10:35:06;;;;;;;14.02;4.90;;;;;;;2.31;100.00;100111.59;5271698;28;20043;-68
2021/12/02 10:37:40;;;;;;;15.65;4.30;;;;;;;2.20;100.00;100104.25;5275818;28;20075;-68
2021/12/02 10:40:19;;;;;;;17.13;4.50;;;;;;;2.19;100.00;100118.38;5272915;28;20030;-68
2021/12/02 10:42:51;;;;;;;13.00;4.30;;;;;;;2.22;100.00;100118.19;5273876;28;20487;-68
2021/12/02 10:45:26;;;;;;;15.80;4.80;;;;;;;2.27;100.00;100125.84;5268538;28;20089;-68
2021/12/02 10:47:57;;;;;;;13.45;4.78;;;;;;;2.16;100.00;100129.88;5272887;28;20043;-68
2021/12/02 10:50:37;;;;;;;16.52;4.80;;;;;;;2.13;100.00;100137.13;5274180;28;20032;-68
2021/12/02 10:53:08;;;;;;;9.93;4.43;;;;;;;2.12;100.00;100136.25;5271510;28;20033;-66
2021/12/02 10:55:39;;;;;;;15.60;4.53;;;;;;;2.16;100.00;100129.88;5272578;28;20033;-67
2021/12/02 10:58:11;;;;;;;13.65;4.60;;;;;;;2.21;100.00;100134.91;5274639;28;20064;-67
2021/12/02 11:00:45;;;;;;;12.00;5.25;;;;;;;2.23;100.00;100140.94;5272540;28;20795;-68
2021/12/02 11:03:17;;;;;;;11.63;4.80;;;;;;;2.32;100.00;100139.59;5271092;28;20059;-67
2021/12/02 11:05:49;;;;;;;16.88;5.47;;;;;;;2.48;100.00;100142.25;5274456;28;20032;-68
2021/12/02 11:08:21;;;;;;;15.50;5.45;;;;;;;2.55;100.00;100141.84;5277550;28;20502;-68
2021/12/02 11:10:52;;;;;;;16.45;5.03;;;;;;;2.69;100.00;100134.97;5275680;28;20573;-67
2021/12/02 11:13:26;;;;;;;12.35;4.68;;;;;;;2.65;100.00;100157.16;5274466;28;20020;-67
2021/12/02 11:15:59;;;;;;;13.80;4.35;;;;;;;2.67;100.00;100152.66;5275417;28;20101;-67
2021/12/02 11:18:34;;;;;;;14.43;4.25;;;;;;;2.70;100.00;100152.47;5276099;28;20745;-67
2021/12/02 11:21:06;;;;;;;13.60;4.85;;;;;;;2.70;100.00;100157.72;5274404;28;20115;-67
2021/12/02 11:23:45;;;;;;;15.18;4.85;;;;;;;2.67;100.00;100148.22;5276606;28;20035;-68
2021/12/02 11:26:18;;;;;;;11.18;3.83;;;;;;;2.61;100.00;100147.69;5275491;28;20151;-68
2021/12/02 11:28:49;;;;;;;11.75;3.88;;;;;;;2.48;100.00;100156.28;5274286;28;20021;-68
2021/12/02 11:31:21;;;;;;;9.77;4.03;;;;;;;2.43;100.00;100153.03;5275402;28;20016;-68
2021/12/02 11:33:52;;;;;;;10.77;3.63;;;;;;;2.42;100.00;100161.03;5273751;28;20035;-68
2021/12/02 11:36:28;;;;;;;10.70;3.92;;;;;;;2.45;100.00;100153.78;5271550;28;20032;-68
2021/12/02 11:38:59;;;;;;;10.93;4.38;;;;;;;2.64;100.00;100163.34;5269154;28;20016;-68
2021/12/02 11:41:31;;;;;;;11.85;4.30;;;;;;;2.69;100.00;100170.06;5273859;28;20032;-67
2021/12/02 11:44:03;;;;;;;10.02;3.22;;;;;;;2.72;100.00;100174.28;5271460;28;20028;-67
2021/12/02 11:46:34;;;;;;;6.38;2.03;;;;;;;2.70;100.00;100177.03;5270558;28;20086;-67
2021/12/02 11:49:06;;;;;;;6.22;1.77;;;;;;;2.73;100.00;100173.38;5273038;28;20041;-66
2021/12/02 11:51:38;;;;;;;6.25;1.63;;;;;;;2.79;100.00;100175.66;5274781;28;20039;-67
2021/12/02 11:54:10;;;;;;;6.05;1.73;;;;;;;2.84;100.00;100170.13;5269907;28;20024;-67
2021/12/02 11:56:41;;;;;;;5.57;1.58;;;;;;;2.83;100.00;100173.72;5275425;28;20067;-67
2021/12/02 11:59:15;;;;;;;3.60;1.10;;;;;;;2.75;100.00;100171.50;5274406;28;20103;-68
2021/12/02 12:01:46;;;;;;;4.13;0.80;;;;;;;2.65;100.00;100149.25;5265626;28;20475;-67
2021/12/02 12:04:18;;;;;;;4.55;0.85;;;;;;;2.50;100.00;100148.28;5273053;28;20017;-67
2021/12/02 12:07:13;;;;;;;2.75;0.77;;;;;;;2.36;100.00;100154.31;5269564;28;20518;-68
2021/12/02 12:09:44;;;;;;;4.80;1.10;;;;;;;2.31;100.00;100149.28;5273425;28;20071;-68
2021/12/02 12:12:16;;;;;;;4.03;1.15;;;;;;;2.27;100.00;100142.47;5267877;28;20036;-68
2021/12/02 12:14:48;;;;;;;4.20;1.30;;;;;;;2.30;100.00;100142.31;5274705;28;20107;-68